Time;durP1;ratioP1;P1;durP2;ratioP2;P2;SDS_P1;SDS_P2;PMS_P1;PMS_P2;Temp;Humidity;BMP_temperature;BMP_pressure;BME280_temperature;BME280_humidity;BME280_pressure;Samples;Min_cycle;Max_cycle;Signal;HPM_P1;HPM_P2
2023/05/15 00:02:17;;;;;;;6.20;5.60;;;18.70;39.50;;;;;;5092680;28;20172;-55
2023/05/15 00:04:43;;;;;;;4.53;4.10;;;18.70;39.50;;;;;;5091415;28;20199;-55
2023/05/15 00:07:09;;;;;;;5.53;4.30;;;18.70;39.60;;;;;;5092932;28;20168;-56
2023/05/15 00:09:35;;;;;;;4.63;4.22;;;18.60;39.60;;;;;;5092229;28;20455;-55
2023/05/15 00:12:01;;;;;;;4.50;4.10;;;18.60;39.50;;;;;;5092500;28;20172;-55
2023/05/15 00:14:27;;;;;;;6.35;4.40;;;18.50;39.60;;;;;;5092950;28;20533;-55
2023/05/15 00:16:53;;;;;;;5.00;4.50;;;18.50;39.60;;;;;;5092407;28;20229;-55
2023/05/15 00:19:19;;;;;;;5.33;4.83;;;18.40;39.50;;;;;;5092531;28;20172;-55
2023/05/15 00:21:44;;;;;;;5.90;4.67;;;18.30;39.60;;;;;;5092266;28;20202;-54
2023/05/15 00:24:10;;;;;;;6.37;4.27;;;18.20;39.60;;;;;;5092350;28;20183;-56
2023/05/15 00:26:36;;;;;;;5.50;4.70;;;18.10;39.80;;;;;;5092657;28;20525;-56
2023/05/15 00:29:02;;;;;;;5.50;4.90;;;18.10;40.00;;;;;;5092309;28;20217;-55
2023/05/15 00:31:28;;;;;;;4.43;4.00;;;18.00;39.90;;;;;;5092176;28;20176;-55
2023/05/15 00:33:53;;;;;;;5.30;4.77;;;18.00;39.90;;;;;;5092254;28;20851;-55
2023/05/15 00:36:20;;;;;;;5.63;4.43;;;17.90;40.00;;;;;;5092453;28;20254;-55
2023/05/15 00:38:46;;;;;;;6.68;4.45;;;17.90;39.90;;;;;;5092206;28;20195;-55
2023/05/15 00:41:13;;;;;;;5.43;4.93;;;17.80;39.80;;;;;;5091881;28;20291;-55
2023/05/15 00:43:40;;;;;;;4.47;4.07;;;17.80;39.80;;;;;;5092010;28;20482;-55
2023/05/15 00:46:06;;;;;;;4.40;4.00;;;17.70;39.90;;;;;;5092088;28;20175;-54
2023/05/15 00:48:33;;;;;;;6.95;4.57;;;17.70;39.90;;;;;;5090853;28;20562;-54
2023/05/15 00:50:59;;;;;;;4.80;4.30;;;17.70;39.90;;;;;;5091814;28;20188;-55
2023/05/15 00:53:27;;;;;;;5.20;4.65;;;17.60;40.00;;;;;;5092109;28;20176;-55
2023/05/15 00:55:56;;;;;;;4.75;4.35;;;17.60;40.10;;;;;;5091997;28;20180;-56
2023/05/15 00:58:23;;;;;;;4.80;4.30;;;17.50;40.20;;;;;;5092066;28;20183;-55
2023/05/15 01:00:49;;;;;;;4.47;4.03;;;17.50;40.20;;;;;;5091881;28;20224;-55
2023/05/15 01:03:16;;;;;;;5.35;4.85;;;17.40;40.20;;;;;;5092199;28;20206;-55
2023/05/15 01:05:42;;;;;;;4.75;4.18;;;17.40;40.20;;;;;;5092097;28;20589;-56
2023/05/15 01:08:26;;;;;;;4.70;4.30;;;17.40;40.40;;;;;;5091926;28;20164;-54
2023/05/15 01:10:53;;;;;;;4.30;3.70;;;17.40;40.60;;;;;;5091556;28;20227;-55
2023/05/15 01:13:22;;;;;;;5.03;4.53;;;17.30;40.60;;;;;;5091751;28;20214;-55
2023/05/15 01:15:50;;;;;;;4.25;3.85;;;17.30;40.70;;;;;;5091810;28;20215;-56
2023/05/15 01:18:16;;;;;;;5.90;5.30;;;17.20;40.80;;;;;;5092013;28;20172;-54
2023/05/15 01:20:57;;;;;;;5.47;4.93;;;17.20;40.90;;;;;;5093693;28;20566;-54
2023/05/15 01:23:33;;;;;;;4.30;3.60;;;17.20;41.20;;;;;;5095924;28;20579;-55
2023/05/15 01:26:20;;;;;;;5.00;4.50;;;17.10;41.50;;;;;;5095982;28;20191;-54
2023/05/15 01:28:58;;;;;;;5.65;5.15;;;17.20;41.10;;;;;;5095678;28;20640;-54
2023/05/15 01:31:25;;;;;;;5.63;5.00;;;17.20;40.80;;;;;;5095533;28;20184;-55
2023/05/15 01:33:56;;;;;;;6.13;5.53;;;17.20;40.90;;;;;;5096051;28;20176;-56
2023/05/15 01:36:48;;;;;;;7.57;4.68;;;17.10;41.10;;;;;;5095533;28;20205;-56
2023/05/15 01:39:22;;;;;;;6.05;5.45;;;17.10;41.30;;;;;;5090479;28;20203;-55
2023/05/15 01:41:56;;;;;;;6.95;4.60;;;17.10;41.60;;;;;;5095491;28;20187;-53
2023/05/15 01:44:30;;;;;;;5.45;4.95;;;17.10;41.90;;;;;;5095298;28;20195;-53
2023/05/15 01:47:21;;;;;;;5.60;5.10;;;17.10;41.90;;;;;;5095571;28;20171;-53
2023/05/15 01:49:49;;;;;;;5.13;4.65;;;17.20;42.10;;;;;;5094983;28;20652;-54
2023/05/15 01:52:25;;;;;;;4.50;3.97;;;17.20;42.10;;;;;;5095196;28;20266;-54
2023/05/15 01:54:51;;;;;;;5.97;5.40;;;17.20;42.10;;;;;;5095030;28;20682;-53
2023/05/15 01:57:19;;;;;;;7.82;4.80;;;17.20;42.20;;;;;;5095372;28;20183;-52
2023/05/15 01:59:45;;;;;;;7.25;5.57;;;17.30;41.70;;;;;;5094728;28;20657;-53
2023/05/15 02:02:12;;;;;;;5.53;4.97;;;17.30;41.70;;;;;;5095088;28;20171;-53
2023/05/15 02:04:40;;;;;;;6.18;5.43;;;17.30;42.20;;;;;;5095139;28;20235;-53
2023/05/15 02:07:06;;;;;;;8.10;5.88;;;17.30;42.30;;;;;;5095149;28;20179;-54
2023/05/15 02:09:33;;;;;;;6.88;6.20;;;17.40;41.70;;;;;;5094425;28;20180;-55
2023/05/15 02:12:02;;;;;;;4.78;4.32;;;17.30;41.70;;;;;;5094712;28;20530;-54
2023/05/15 02:14:29;;;;;;;6.47;5.18;;;17.40;41.90;;;;;;5094911;28;20267;-54
2023/05/15 02:16:55;;;;;;;5.95;4.72;;;17.40;41.90;;;;;;5094849;28;20560;-53
2023/05/15 02:19:21;;;;;;;6.40;5.30;;;17.40;41.50;;;;;;5094570;28;20176;-54
2023/05/15 02:21:47;;;;;;;6.20;4.90;;;17.50;41.40;;;;;;5094509;28;20462;-54
2023/05/15 02:24:13;;;;;;;4.13;3.72;;;17.40;41.50;;;;;;5093153;28;20276;-54
2023/05/15 02:26:51;;;;;;;6.20;5.00;;;17.40;41.50;;;;;;5094821;28;20664;-54
2023/05/15 02:29:35;;;;;;;4.85;4.30;;;17.40;41.50;;;;;;5094388;28;20406;-54
2023/05/15 02:32:07;;;;;;;5.95;4.80;;;17.50;41.50;;;;;;5094446;28;20179;-54
2023/05/15 02:35:03;;;;;;;4.72;4.30;;;17.50;41.70;;;;;;5094588;28;20188;-53
2023/05/15 02:37:33;;;;;;;4.80;4.30;;;17.50;41.90;;;;;;5094491;28;20582;-54
2023/05/15 02:40:00;;;;;;;5.53;4.50;;;17.50;41.90;;;;;;5094290;28;20199;-53
2023/05/15 02:42:28;;;;;;;7.30;4.78;;;17.50;42.10;;;;;;5094309;28;20172;-54
2023/05/15 02:44:56;;;;;;;5.10;3.92;;;17.60;42.10;;;;;;5094156;28;20188;-52
2023/05/15 02:47:23;;;;;;;4.38;3.95;;;17.60;42.20;;;;;;5094314;28;20537;-54
2023/05/15 02:49:50;;;;;;;5.00;4.60;;;17.60;42.00;;;;;;5094023;28;20172;-53
2023/05/15 02:52:16;;;;;;;4.63;4.07;;;17.60;42.00;;;;;;5094303;28;20549;-54
2023/05/15 02:54:42;;;;;;;4.68;4.20;;;17.60;42.20;;;;;;5094098;28;20224;-53
2023/05/15 02:57:08;;;;;;;7.03;4.97;;;17.60;42.30;;;;;;5094194;28;20250;-54
2023/05/15 02:59:34;;;;;;;4.23;3.80;;;17.60;42.50;;;;;;5093746;28;20253;-53
2023/05/15 03:02:02;;;;;;;5.43;4.60;;;17.60;42.60;;;;;;5094141;28;20576;-54
2023/05/15 03:04:28;;;;;;;5.38;4.88;;;17.60;42.50;;;;;;5093731;28;20215;-54
2023/05/15 03:06:54;;;;;;;5.73;5.13;;;17.60;42.50;;;;;;5093794;28;20167;-53
2023/05/15 03:09:20;;;;;;;5.13;4.30;;;17.60;42.70;;;;;;5093348;28;20418;-54
2023/05/15 03:11:46;;;;;;;4.93;4.43;;;17.70;42.90;;;;;;5093622;28;20463;-54
2023/05/15 03:14:11;;;;;;;10.73;4.77;;;17.70;42.90;;;;;;5093626;28;20179;-53
2023/05/15 03:16:37;;;;;;;5.63;4.80;;;17.70;42.70;;;;;;5093758;28;20168;-52
2023/05/15 03:19:04;;;;;;;5.30;4.80;;;17.70;42.40;;;;;;5093654;28;20203;-55
2023/05/15 03:21:30;;;;;;;5.45;4.95;;;17.60;42.30;;;;;;5093436;28;20501;-56
2023/05/15 03:23:56;;;;;;;4.95;4.40;;;17.60;42.40;;;;;;5092074;28;20299;-55
2023/05/15 03:26:22;;;;;;;6.43;5.73;;;17.60;42.50;;;;;;5093728;28;20700;-54
2023/05/15 03:28:48;;;;;;;7.53;5.10;;;17.60;42.80;;;;;;5093504;28;20931;-54
2023/05/15 03:31:13;;;;;;;5.90;5.30;;;17.60;43.00;;;;;;5093104;28;20608;-56
2023/05/15 03:33:39;;;;;;;5.10;4.13;;;17.50;43.30;;;;;;5093485;28;20168;-56
2023/05/15 03:36:06;;;;;;;5.85;5.35;;;17.40;43.60;;;;;;5093329;28;20596;-55
2023/05/15 03:38:32;;;;;;;6.53;5.53;;;17.30;44.20;;;;;;5093135;28;20179;-55
2023/05/15 03:40:57;;;;;;;5.97;5.47;;;17.20;44.30;;;;;;5093015;28;20188;-55
2023/05/15 03:43:23;;;;;;;6.07;5.17;;;17.10;44.90;;;;;;5092520;28;20233;-55
2023/05/15 03:45:49;;;;;;;4.73;4.33;;;17.00;44.80;;;;;;5093155;28;20637;-55
2023/05/15 03:48:15;;;;;;;5.57;4.50;;;17.00;44.80;;;;;;5093071;28;20255;-56
2023/05/15 03:50:42;;;;;;;5.90;5.20;;;16.90;44.90;;;;;;5092865;28;20274;-55
2023/05/15 03:53:08;;;;;;;5.60;4.53;;;16.90;44.80;;;;;;5092886;28;20175;-55
2023/05/15 03:55:34;;;;;;;5.33;4.47;;;17.00;44.80;;;;;;5091574;28;20167;-56
2023/05/15 03:58:01;;;;;;;5.43;4.88;;;17.00;44.60;;;;;;5092902;28;20172;-56
2023/05/15 04:00:27;;;;;;;5.30;4.70;;;17.10;44.70;;;;;;5092607;28;20203;-55
2023/05/15 04:02:52;;;;;;;4.57;4.10;;;17.10;44.60;;;;;;5092767;28;20165;-55
2023/05/15 04:05:20;;;;;;;5.27;4.57;;;17.10;44.50;;;;;;5092543;28;20515;-56
2023/05/15 04:07:46;;;;;;;5.63;4.97;;;17.10;44.50;;;;;;5092662;28;20180;-54
2023/05/15 04:10:12;;;;;;;6.20;5.60;;;17.20;44.60;;;;;;5092405;28;20207;-56
2023/05/15 04:12:38;;;;;;;5.13;4.57;;;17.20;44.30;;;;;;5092626;28;20168;-55
2023/05/15 04:15:22;;;;;;;5.20;4.70;;;17.10;44.40;;;;;;5092432;28;20539;-56
2023/05/15 04:17:50;;;;;;;8.10;5.05;;;17.20;44.30;;;;;;5092637;28;20390;-55
2023/05/15 04:20:18;;;;;;;5.00;4.50;;;17.20;45.00;;;;;;5092152;28;20249;-56
2023/05/15 04:22:45;;;;;;;4.57;4.15;;;17.30;44.30;;;;;;5092358;28;20175;-56
2023/05/15 04:25:13;;;;;;;6.32;5.80;;;17.30;45.00;;;;;;5092472;28;20199;-56
2023/05/15 04:27:40;;;;;;;5.93;5.32;;;17.30;44.20;;;;;;5092369;28;20177;-55
2023/05/15 04:30:07;;;;;;;5.18;4.43;;;17.30;44.20;;;;;;5090791;28;20261;-53
2023/05/15 04:32:34;;;;;;;5.38;4.43;;;17.30;44.10;;;;;;5092393;28;20175;-55
2023/05/15 04:35:01;;;;;;;6.15;4.80;;;17.30;44.00;;;;;;5092164;28;20178;-56
2023/05/15 04:37:28;;;;;;;4.63;4.20;;;17.40;44.10;;;;;;5092153;28;20185;-57
2023/05/15 04:39:54;;;;;;;7.10;4.13;;;17.40;43.90;;;;;;5092210;28;20180;-55
2023/05/15 04:42:20;;;;;;;5.10;4.35;;;17.40;43.80;;;;;;5092242;28;20669;-56
2023/05/15 04:44:46;;;;;;;6.10;4.40;;;17.40;43.80;;;;;;5092198;28;20234;-54
2023/05/15 04:47:12;;;;;;;4.72;4.32;;;17.50;44.10;;;;;;5092133;28;20394;-53
2023/05/15 04:49:41;;;;;;;5.30;4.85;;;17.50;44.20;;;;;;5092226;28;20179;-57
2023/05/15 04:52:07;;;;;;;4.97;4.15;;;17.60;44.20;;;;;;5091938;28;20172;-57
2023/05/15 04:54:33;;;;;;;5.10;4.50;;;17.60;44.00;;;;;;5092467;28;20274;-54
2023/05/15 04:57:00;;;;;;;8.07;5.07;;;17.70;44.30;;;;;;5096430;28;20175;-55
2023/05/15 04:59:27;;;;;;;8.00;4.32;;;17.70;44.20;;;;;;5096398;28;20179;-57
2023/05/15 05:01:53;;;;;;;6.53;5.25;;;17.70;44.50;;;;;;5096210;28;20196;-54
2023/05/15 05:04:19;;;;;;;5.60;5.05;;;17.70;44.60;;;;;;5096099;28;20213;-56
2023/05/15 05:06:46;;;;;;;8.17;6.20;;;17.80;44.60;;;;;;5096143;28;20222;-55
2023/05/15 05:09:12;;;;;;;7.38;6.40;;;17.90;44.50;;;;;;5095983;28;20176;-52
2023/05/15 05:11:42;;;;;;;5.13;4.65;;;17.80;44.30;;;;;;5096012;28;20192;-54
2023/05/15 05:14:08;;;;;;;6.70;5.63;;;17.90;44.30;;;;;;5095999;28;20646;-54
2023/05/15 05:16:35;;;;;;;7.55;6.88;;;17.90;44.20;;;;;;5096057;28;20687;-56
2023/05/15 05:19:01;;;;;;;8.55;5.90;;;17.90;44.20;;;;;;5095879;28;20662;-55
2023/05/15 05:21:27;;;;;;;9.82;6.28;;;17.90;44.30;;;;;;5095996;28;20200;-56
2023/05/15 05:23:52;;;;;;;6.73;5.93;;;18.00;44.40;;;;;;5095787;28;20745;-55
2023/05/15 05:26:18;;;;;;;8.50;6.80;;;18.00;44.40;;;;;;5096114;28;20191;-56
2023/05/15 05:28:44;;;;;;;6.93;5.43;;;18.10;44.50;;;;;;5095961;28;20207;-55
2023/05/15 05:31:10;;;;;;;9.50;7.50;;;18.10;44.60;;;;;;5095563;28;20199;-55
2023/05/15 05:33:36;;;;;;;7.33;6.53;;;18.10;44.10;;;;;;5095593;28;20404;-55
2023/05/15 05:36:01;;;;;;;7.40;6.33;;;18.20;44.00;;;;;;5095629;28;20209;-54
2023/05/15 05:38:27;;;;;;;10.57;6.20;;;18.20;43.80;;;;;;5095695;28;20191;-56
2023/05/15 05:40:53;;;;;;;8.73;7.83;;;18.30;44.60;;;;;;5095341;28;20349;-53
2023/05/15 05:43:19;;;;;;;12.03;7.03;;;18.30;44.10;;;;;;5095402;28;20178;-53
2023/05/15 05:45:46;;;;;;;8.85;7.00;;;18.40;44.00;;;;;;5095730;28;20176;-53
2023/05/15 05:48:12;;;;;;;7.68;6.88;;;18.40;43.90;;;;;;5095249;28;20664;-53
2023/05/15 05:50:38;;;;;;;8.33;7.53;;;18.40;44.10;;;;;;5095145;28;20188;-54
2023/05/15 05:53:04;;;;;;;12.05;7.72;;;18.50;44.20;;;;;;5095169;28;20402;-54
2023/05/15 05:55:30;;;;;;;9.00;8.17;;;18.50;43.80;;;;;;5095327;28;20172;-53
2023/05/15 05:57:56;;;;;;;8.73;7.90;;;18.50;43.60;;;;;;5095167;28;20255;-53
2023/05/15 06:00:24;;;;;;;9.95;8.05;;;18.60;43.70;;;;;;5094829;28;20188;-54
2023/05/15 06:02:55;;;;;;;9.35;7.70;;;18.60;43.50;;;;;;5094941;28;20179;-53
2023/05/15 06:05:22;;;;;;;9.93;7.97;;;18.70;43.20;;;;;;5094766;28;20542;-53
2023/05/15 06:07:48;;;;;;;10.57;9.48;;;18.70;43.20;;;;;;5094960;28;20187;-54
2023/05/15 06:10:14;;;;;;;9.32;8.07;;;18.70;43.30;;;;;;5094457;28;20208;-54
2023/05/15 06:12:40;;;;;;;10.23;8.20;;;18.80;42.90;;;;;;5094925;28;20271;-54
2023/05/15 06:15:06;;;;;;;8.95;8.02;;;18.80;43.10;;;;;;5095081;28;20514;-53
2023/05/15 06:17:32;;;;;;;9.77;8.57;;;18.90;43.20;;;;;;5094716;28;20172;-51
2023/05/15 06:19:58;;;;;;;9.70;8.77;;;18.90;42.70;;;;;;5094576;28;20210;-54
2023/05/15 06:22:24;;;;;;;10.37;9.33;;;19.00;42.60;;;;;;5093500;28;20171;-53
2023/05/15 06:24:50;;;;;;;10.27;9.10;;;19.00;42.70;;;;;;5094659;28;20493;-52
2023/05/15 06:27:16;;;;;;;12.03;8.57;;;19.00;42.60;;;;;;5094653;28;20763;-51
2023/05/15 06:29:41;;;;;;;10.00;8.43;;;19.10;42.80;;;;;;5094102;28;20410;-54
2023/05/15 06:32:08;;;;;;;8.93;7.90;;;19.00;42.40;;;;;;5094717;28;20179;-52
2023/05/15 06:34:34;;;;;;;9.55;8.32;;;19.00;42.00;;;;;;5094501;28;20621;-54
2023/05/15 06:37:00;;;;;;;9.70;7.77;;;19.00;41.90;;;;;;5094750;28;20176;-54
2023/05/15 06:39:26;;;;;;;10.63;8.20;;;19.00;42.30;;;;;;5094548;28;20179;-52
2023/05/15 06:41:56;;;;;;;13.20;8.60;;;19.00;42.30;;;;;;5094537;28;20240;-52
2023/05/15 06:44:22;;;;;;;10.43;9.02;;;19.10;42.70;;;;;;5094225;28;20195;-55
2023/05/15 06:46:48;;;;;;;15.40;9.57;;;19.10;42.40;;;;;;5094250;28;20180;-52
2023/05/15 06:49:14;;;;;;;10.13;8.57;;;19.10;42.60;;;;;;5094032;28;20406;-53
2023/05/15 06:51:40;;;;;;;9.83;7.97;;;19.20;41.80;;;;;;5094096;28;20267;-54
2023/05/15 06:54:06;;;;;;;9.30;7.30;;;19.20;41.40;;;;;;5094214;28;20275;-52
2023/05/15 06:56:31;;;;;;;8.73;7.57;;;19.20;41.30;;;;;;5094106;28;20548;-54
2023/05/15 06:58:57;;;;;;;9.60;8.60;;;19.20;41.20;;;;;;5093781;28;20416;-54
2023/05/15 07:01:23;;;;;;;11.00;9.90;;;19.20;41.20;;;;;;5093657;28;20198;-52
2023/05/15 07:03:48;;;;;;;14.63;10.00;;;19.20;41.00;;;;;;5094005;28;20234;-52
2023/05/15 07:06:15;;;;;;;8.10;7.30;;;19.20;41.40;;;;;;5093829;28;20634;-55
2023/05/15 07:08:41;;;;;;;9.50;7.22;;;19.20;41.70;;;;;;5093896;28;20190;-52
2023/05/15 07:11:06;;;;;;;9.83;7.93;;;19.30;41.70;;;;;;5093414;28;20216;-52
2023/05/15 07:13:32;;;;;;;16.73;8.60;;;19.50;41.20;;;;;;5093728;28;20484;-54
2023/05/15 07:15:58;;;;;;;10.70;7.67;;;19.50;40.70;;;;;;5093648;28;20176;-55
2023/05/15 07:18:24;;;;;;;10.27;7.90;;;19.60;40.30;;;;;;5074733;28;20179;-52
2023/05/15 07:20:49;;;;;;;8.73;6.33;;;19.60;40.40;;;;;;5093340;28;20202;-52
2023/05/15 07:23:15;;;;;;;13.87;8.03;;;19.70;40.50;;;;;;5093586;28;20225;-54
2023/05/15 07:25:41;;;;;;;10.90;8.73;;;19.90;40.50;;;;;;5093631;28;20172;-52
2023/05/15 07:28:07;;;;;;;16.13;8.50;;;20.00;40.50;;;;;;5093679;28;20246;-54
2023/05/15 07:30:32;;;;;;;8.13;7.10;;;20.10;40.00;;;;;;5093157;28;20602;-54
2023/05/15 07:32:58;;;;;;;8.03;7.20;;;20.10;40.00;;;;;;5093448;28;20176;-53
2023/05/15 07:35:24;;;;;;;11.83;7.70;;;20.20;39.90;;;;;;5093299;28;20267;-52
2023/05/15 07:37:50;;;;;;;9.93;8.43;;;20.20;39.80;;;;;;5093222;28;20271;-54
2023/05/15 07:40:16;;;;;;;7.73;6.70;;;20.30;39.80;;;;;;5092910;28;20294;-52
2023/05/15 07:42:43;;;;;;;8.17;7.27;;;20.40;39.40;;;;;;5093066;28;20164;-54
2023/05/15 07:45:09;;;;;;;7.43;6.78;;;20.40;39.10;;;;;;5093148;28;20487;-52
2023/05/15 07:47:35;;;;;;;9.57;7.88;;;20.50;39.10;;;;;;5093286;28;20194;-52
2023/05/15 07:50:01;;;;;;;9.13;8.23;;;20.40;39.00;;;;;;5092902;28;20665;-54
2023/05/15 07:52:27;;;;;;;8.93;7.97;;;20.40;38.70;;;;;;5093221;28;20172;-54
2023/05/15 07:55:42;;;;;;;9.37;8.50;;;20.30;38.50;;;;;;5093002;28;20203;-52
2023/05/15 07:58:08;;;;;;;9.30;7.32;;;20.20;38.50;;;;;;5093083;28;20157;-52
2023/05/15 08:00:35;;;;;;;9.87;8.53;;;20.20;39.40;;;;;;5092583;28;20203;-54
2023/05/15 08:03:01;;;;;;;7.97;7.18;;;20.20;39.30;;;;;;5092834;28;20429;-54
2023/05/15 08:05:28;;;;;;;8.57;7.67;;;20.30;39.50;;;;;;5092680;28;20677;-52
2023/05/15 08:07:54;;;;;;;9.73;8.93;;;20.30;39.70;;;;;;5092804;28;20402;-52
2023/05/15 08:10:20;;;;;;;10.23;9.23;;;20.40;39.70;;;;;;5092331;28;20295;-54
2023/05/15 08:12:46;;;;;;;13.07;8.50;;;20.50;39.50;;;;;;5092667;28;20200;-54
2023/05/15 08:15:14;;;;;;;11.70;9.80;;;20.50;39.50;;;;;;5092685;28;20445;-54
2023/05/15 08:17:40;;;;;;;10.70;8.35;;;20.60;39.50;;;;;;5092623;28;20237;-54
2023/05/15 08:20:06;;;;;;;9.85;7.72;;;20.60;39.50;;;;;;5092191;28;20202;-54
2023/05/15 08:22:32;;;;;;;10.38;9.27;;;20.70;39.70;;;;;;5092351;28;20180;-54
2023/05/15 08:24:59;;;;;;;9.07;7.93;;;20.70;39.70;;;;;;5092606;28;20213;-54
2023/05/15 08:27:25;;;;;;;10.82;9.15;;;20.90;40.10;;;;;;5092669;28;20175;-51
2023/05/15 08:29:51;;;;;;;8.65;7.65;;;21.00;39.90;;;;;;5092165;28;20533;-54
2023/05/15 08:32:17;;;;;;;9.03;8.13;;;21.00;39.20;;;;;;5092277;28;20247;-53
2023/05/15 08:34:43;;;;;;;18.15;8.38;;;21.00;39.20;;;;;;5092462;28;20417;-52
2023/05/15 08:37:09;;;;;;;11.40;8.60;;;21.10;39.20;;;;;;5092172;28;20537;-54
2023/05/15 08:39:35;;;;;;;9.13;8.17;;;21.00;39.20;;;;;;5091978;28;20552;-51
2023/05/15 08:42:04;;;;;;;11.30;9.43;;;21.00;38.50;;;;;;5092336;28;20414;-54
2023/05/15 08:44:30;;;;;;;13.27;9.25;;;20.90;38.40;;;;;;5092012;28;20196;-52
2023/05/15 08:46:57;;;;;;;9.87;8.87;;;20.90;38.70;;;;;;5091998;28;20176;-52
2023/05/15 08:49:45;;;;;;;10.43;8.32;;;20.90;38.90;;;;;;5091792;28;20546;-55
2023/05/15 08:52:11;;;;;;;12.07;8.32;;;20.90;38.70;;;;;;5072316;28;20667;-55
2023/05/15 08:54:39;;;;;;;9.23;8.33;;;20.80;38.50;;;;;;5092293;28;20176;-53
2023/05/15 08:57:06;;;;;;;10.65;8.27;;;20.80;38.80;;;;;;5092093;28;20448;-52
2023/05/15 08:59:32;;;;;;;9.82;8.85;;;20.80;38.40;;;;;;5091690;28;20588;-54
2023/05/15 09:01:58;;;;;;;13.30;9.57;;;20.80;38.60;;;;;;5091821;28;20191;-52
2023/05/15 09:04:24;;;;;;;11.10;9.45;;;20.80;38.70;;;;;;5092134;28;20488;-53
2023/05/15 09:06:50;;;;;;;10.20;7.83;;;20.70;38.60;;;;;;5092233;28;20172;-54
2023/05/15 09:09:17;;;;;;;9.43;8.55;;;20.80;38.70;;;;;;5091534;28;20592;-54
2023/05/15 09:11:44;;;;;;;9.40;8.50;;;20.80;38.60;;;;;;5091921;28;20240;-52
2023/05/15 09:14:11;;;;;;;8.82;7.93;;;20.90;38.50;;;;;;5091901;28;20179;-52
2023/05/15 09:16:37;;;;;;;12.18;8.63;;;20.90;38.40;;;;;;5091809;28;20240;-54
2023/05/15 09:19:05;;;;;;;11.73;9.93;;;20.90;38.30;;;;;;5091688;28;20172;-53
2023/05/15 09:21:31;;;;;;;10.77;9.13;;;21.00;38.40;;;;;;5091743;28;20282;-55
2023/05/15 09:24:21;;;;;;;8.93;8.15;;;21.10;38.60;;;;;;5091689;28;20665;-52
2023/05/15 09:27:03;;;;;;;10.38;8.32;;;21.20;38.10;;;;;;5091713;28;20191;-52
2023/05/15 09:29:31;;;;;;;10.65;9.57;;;21.30;38.30;;;;;;5091748;28;20174;-55
2023/05/15 09:32:01;;;;;;;9.48;8.13;;;21.40;37.80;;;;;;5091509;28;20199;-56
2023/05/15 09:34:34;;;;;;;9.25;8.35;;;21.50;37.70;;;;;;5091726;28;20203;-53
2023/05/15 09:37:05;;;;;;;9.07;8.25;;;21.60;38.00;;;;;;5091969;28;20255;-55
2023/05/15 09:39:32;;;;;;;13.30;11.67;;;21.80;37.90;;;;;;5091357;28;20610;-54
2023/05/15 09:42:12;;;;;;;10.10;9.03;;;22.00;38.00;;;;;;5094210;28;20491;-55
2023/05/15 09:44:42;;;;;;;11.52;9.68;;;22.20;37.50;;;;;;5095335;28;21042;-54
2023/05/15 09:47:10;;;;;;;12.10;10.90;;;22.40;37.60;;;;;;5095336;28;20205;-54
2023/05/15 09:49:36;;;;;;;9.90;9.00;;;22.60;37.20;;;;;;5095082;28;20417;-56
2023/05/15 09:52:06;;;;;;;12.43;11.13;;;22.80;36.80;;;;;;5095172;28;20401;-56
2023/05/15 09:54:31;;;;;;;9.13;8.33;;;22.90;36.70;;;;;;5095172;28;20406;-54
2023/05/15 09:57:08;;;;;;;9.73;8.73;;;22.90;34.90;;;;;;5095372;28;20443;-54
2023/05/15 09:59:33;;;;;;;10.90;8.77;;;23.00;34.50;;;;;;5095237;28;20183;-56
2023/05/15 10:01:59;;;;;;;8.80;7.93;;;23.00;34.30;;;;;;5094854;28;20426;-53
2023/05/15 10:04:25;;;;;;;8.17;7.47;;;23.00;34.70;;;;;;5094843;28;20251;-52
2023/05/15 10:06:52;;;;;;;7.73;7.03;;;22.90;34.20;;;;;;5094923;28;20164;-55
2023/05/15 10:09:18;;;;;;;9.40;8.00;;;23.00;34.40;;;;;;5094558;28;20855;-54
2023/05/15 10:11:51;;;;;;;9.10;8.20;;;23.10;35.10;;;;;;5095070;28;20512;-56
2023/05/15 10:14:18;;;;;;;8.30;7.50;;;23.20;34.60;;;;;;5094846;28;20412;-56
2023/05/15 10:16:44;;;;;;;8.97;8.17;;;23.30;35.00;;;;;;5094798;28;20430;-53
2023/05/15 10:19:13;;;;;;;10.17;9.10;;;23.40;34.10;;;;;;5094533;28;20445;-55
2023/05/15 10:21:40;;;;;;;9.33;8.43;;;23.50;34.60;;;;;;5094549;28;20421;-56
2023/05/15 10:24:07;;;;;;;9.53;8.63;;;23.60;33.40;;;;;;5094781;28;20445;-53
2023/05/15 10:26:38;;;;;;;12.10;10.90;;;23.70;33.20;;;;;;5094582;28;20926;-56
2023/05/15 10:29:20;;;;;;;9.13;8.30;;;23.80;33.50;;;;;;5093226;28;20417;-52
2023/05/15 10:31:47;;;;;;;19.77;17.60;;;24.00;33.30;;;;;;5094412;28;20495;-54
2023/05/15 10:34:13;;;;;;;11.13;10.10;;;24.20;33.50;;;;;;5094777;28;20409;-56
2023/05/15 10:36:41;;;;;;;7.10;6.40;;;24.40;33.20;;;;;;5094400;28;20414;-56
2023/05/15 10:39:07;;;;;;;10.50;9.47;;;24.40;31.80;;;;;;5094488;28;20489;-57
2023/05/15 10:41:35;;;;;;;8.27;7.47;;;24.60;32.80;;;;;;5094430;28;20432;-56
2023/05/15 10:44:02;;;;;;;10.17;9.27;;;24.70;31.10;;;;;;5093976;28;20449;-56
2023/05/15 10:46:30;;;;;;;10.03;9.13;;;24.90;32.30;;;;;;5094152;28;20816;-54
2023/05/15 10:49:00;;;;;;;8.13;7.40;;;25.10;32.40;;;;;;5094369;28;20878;-55
2023/05/15 10:51:28;;;;;;;8.97;8.03;;;25.30;31.40;;;;;;5093828;28;20434;-53
2023/05/15 10:53:55;;;;;;;8.40;6.00;;;25.50;30.30;;;;;;5092963;28;20452;-54
2023/05/15 10:56:28;;;;;;;7.80;6.67;;;25.60;29.00;;;;;;5094081;28;20437;-57
2023/05/15 10:58:54;;;;;;;7.23;6.63;;;25.60;28.30;;;;;;5094090;28;20477;-54
2023/05/15 11:01:27;;;;;;;8.60;7.80;;;25.40;28.70;;;;;;5093700;28;20603;-57
2023/05/15 11:04:13;;;;;;;7.87;7.20;;;25.40;29.40;;;;;;5093910;28;20970;-56
2023/05/15 11:06:41;;;;;;;6.80;6.00;;;25.50;30.20;;;;;;5093802;28;20409;-54
2023/05/15 11:09:34;;;;;;;8.77;7.90;;;25.50;29.60;;;;;;5093522;28;20399;-55
2023/05/15 11:12:04;;;;;;;7.27;6.57;;;25.70;29.50;;;;;;5088933;28;20434;-55
2023/05/15 11:14:33;;;;;;;9.40;7.87;;;25.70;26.90;;;;;;5093967;28;20406;-55
2023/05/15 11:17:02;;;;;;;7.17;6.47;;;25.80;29.40;;;;;;5093889;28;20410;-58
2023/05/15 11:19:30;;;;;;;7.50;6.90;;;26.00;29.70;;;;;;5093630;28;20410;-58
2023/05/15 11:21:59;;;;;;;7.80;7.20;;;26.10;27.70;;;;;;5093386;28;20429;-54
2023/05/15 11:24:32;;;;;;;7.73;7.13;;;26.00;28.00;;;;;;5093420;28;20453;-57
2023/05/15 11:27:02;;;;;;;8.57;7.80;;;26.10;28.20;;;;;;5093428;28;20406;-54
2023/05/15 11:29:28;;;;;;;9.90;7.10;;;26.10;28.60;;;;;;5093267;28;20422;-56
2023/05/15 11:31:54;;;;;;;7.30;6.60;;;26.20;28.30;;;;;;5093156;28;20820;-54
2023/05/15 11:34:33;;;;;;;6.60;5.97;;;26.20;27.80;;;;;;5093365;28;20412;-56
2023/05/15 11:36:59;;;;;;;8.47;7.03;;;26.30;28.00;;;;;;5093378;28;20441;-54
2023/05/15 11:39:26;;;;;;;10.00;8.77;;;26.20;27.90;;;;;;5093184;28;20410;-54
2023/05/15 11:41:53;;;;;;;8.30;7.50;;;26.10;28.40;;;;;;5093134;28;20837;-56
2023/05/15 11:44:23;;;;;;;7.03;6.33;;;25.90;28.20;;;;;;5092989;28;20449;-56
2023/05/15 11:46:52;;;;;;;8.33;7.53;;;25.70;28.40;;;;;;5093340;28;20406;-54
2023/05/15 11:49:23;;;;;;;9.27;8.30;;;25.50;27.30;;;;;;5093073;28;20402;-57
2023/05/15 11:51:50;;;;;;;8.30;7.33;;;25.10;27.60;;;;;;5092912;28;20426;-57
2023/05/15 11:54:16;;;;;;;10.00;9.00;;;24.70;28.50;;;;;;5093219;28;20414;-54
2023/05/15 11:56:43;;;;;;;9.47;8.67;;;24.30;30.40;;;;;;5092881;28;20438;-55
2023/05/15 11:59:12;;;;;;;10.07;8.13;;;23.80;32.10;;;;;;5092893;28;20429;-57
2023/05/15 12:01:42;;;;;;;11.93;10.30;;;23.40;33.00;;;;;;5092818;28;20464;-54
2023/05/15 12:04:13;;;;;;;25.40;13.67;;;23.10;35.40;;;;;;5092392;28;20858;-56
2023/05/15 12:06:39;;;;;;;14.77;12.50;;;22.70;36.40;;;;;;5092621;28;20406;-57
2023/05/15 12:09:06;;;;;;;11.63;10.63;;;22.40;36.80;;;;;;5092380;28;20436;-54
2023/05/15 12:11:32;;;;;;;12.53;11.30;;;22.10;37.60;;;;;;5092647;28;20425;-57
2023/05/15 12:13:58;;;;;;;13.20;11.00;;;21.90;38.60;;;;;;5092774;28;20429;-57
2023/05/15 12:16:25;;;;;;;11.73;10.63;;;21.90;39.90;;;;;;5092546;28;20402;-54
2023/05/15 12:18:51;;;;;;;13.20;11.90;;;21.90;40.60;;;;;;5092561;28;20164;-55
2023/05/15 12:21:17;;;;;;;13.73;12.40;;;22.00;41.20;;;;;;5092211;28;20428;-56
2023/05/15 12:23:52;;;;;;;13.80;12.47;;;22.00;42.00;;;;;;5092397;28;20196;-56
2023/05/15 12:26:21;;;;;;;13.53;12.10;;;22.10;42.20;;;;;;5092441;28;20408;-57
2023/05/15 12:28:47;;;;;;;12.90;11.53;;;22.20;41.50;;;;;;5092441;28;20402;-54
2023/05/15 12:31:13;;;;;;;12.30;11.20;;;22.20;41.70;;;;;;5092062;28;20438;-53
2023/05/15 12:33:39;;;;;;;13.20;11.90;;;22.30;42.00;;;;;;5092275;28;20882;-54
2023/05/15 12:36:05;;;;;;;13.10;11.80;;;22.40;42.60;;;;;;5092602;28;20453;-55
2023/05/15 12:38:33;;;;;;;15.37;13.03;;;22.40;42.60;;;;;;5092242;28;20451;-57
2023/05/15 12:41:00;;;;;;;12.70;11.40;;;22.50;42.50;;;;;;5090683;28;20513;-54
2023/05/15 12:43:26;;;;;;;13.03;11.87;;;22.50;42.20;;;;;;5092317;28;20438;-55
2023/05/15 12:45:53;;;;;;;13.53;12.33;;;22.60;42.80;;;;;;5092278;28;20402;-56
2023/05/15 12:48:20;;;;;;;13.20;12.10;;;22.80;43.40;;;;;;5092202;28;20417;-54